sensor_id;sensor_type;location;lat;lon;timestamp;temperature;humidity
24450;DHT22;13349;50.984;5.822;2023-07-31T00:01:01;16.50;99.90
24450;DHT22;13349;50.984;5.822;2023-07-31T00:03:28;16.60;99.90
24450;DHT22;13349;50.984;5.822;2023-07-31T00:05:55;16.50;99.90
24450;DHT22;13349;50.984;5.822;2023-07-31T00:08:22;16.50;99.90
24450;DHT22;13349;50.984;5.822;2023-07-31T00:10:51;16.50;99.90
24450;DHT22;13349;50.984;5.822;2023-07-31T00:13:18;16.50;99.90
24450;DHT22;13349;50.984;5.822;2023-07-31T00:15:46;16.60;99.90
24450;DHT22;13349;50.984;5.822;2023-07-31T00:18:13;16.60;99.90
24450;DHT22;13349;50.984;5.822;2023-07-31T00:20:40;16.50;99.90
24450;DHT22;13349;50.984;5.822;2023-07-31T00:23:07;16.60;99.90
24450;DHT22;13349;50.984;5.822;2023-07-31T00:25:34;16.50;99.90
24450;DHT22;13349;50.984;5.822;2023-07-31T00:28:01;16.50;99.90
24450;DHT22;13349;50.984;5.822;2023-07-31T00:30:29;16.50;99.90
24450;DHT22;13349;50.984;5.822;2023-07-31T00:32:57;16.60;99.90
24450;DHT22;13349;50.984;5.822;2023-07-31T00:35:24;16.50;99.90
24450;DHT22;13349;50.984;5.822;2023-07-31T00:37:51;16.50;99.90
24450;DHT22;13349;50.984;5.822;2023-07-31T00:40:18;16.50;99.90
24450;DHT22;13349;50.984;5.822;2023-07-31T00:42:45;16.50;99.90
24450;DHT22;13349;50.984;5.822;2023-07-31T00:45:12;16.40;99.90
24450;DHT22;13349;50.984;5.822;2023-07-31T00:47:39;16.40;99.90
24450;DHT22;13349;50.984;5.822;2023-07-31T00:50:08;16.40;99.90
24450;DHT22;13349;50.984;5.822;2023-07-31T00:52:35;16.50;99.90
24450;DHT22;13349;50.984;5.822;2023-07-31T00:55:03;16.50;99.90
24450;DHT22;13349;50.984;5.822;2023-07-31T00:57:30;16.50;99.90
24450;DHT22;13349;50.984;5.822;2023-07-31T00:59:58;16.40;99.90
24450;DHT22;13349;50.984;5.822;2023-07-31T01:02:25;16.50;99.90
24450;DHT22;13349;50.984;5.822;2023-07-31T01:04:52;16.50;99.90
24450;DHT22;13349;50.984;5.822;2023-07-31T01:07:22;16.50;99.90
24450;DHT22;13349;50.984;5.822;2023-07-31T01:09:52;16.50;99.90
24450;DHT22;13349;50.984;5.822;2023-07-31T01:12:22;16.50;99.90
24450;DHT22;13349;50.984;5.822;2023-07-31T01:14:50;16.60;99.90
24450;DHT22;13349;50.984;5.822;2023-07-31T01:17:18;16.60;99.90
24450;DHT22;13349;50.984;5.822;2023-07-31T01:19:45;16.70;99.90
24450;DHT22;13349;50.984;5.822;2023-07-31T01:22:16;16.60;99.90
24450;DHT22;13349;50.984;5.822;2023-07-31T01:24:52;16.60;99.90
24450;DHT22;13349;50.984;5.822;2023-07-31T01:27:23;16.60;99.90
24450;DHT22;13349;50.984;5.822;2023-07-31T01:29:52;16.70;99.90
24450;DHT22;13349;50.984;5.822;2023-07-31T01:32:22;16.70;99.90
24450;DHT22;13349;50.984;5.822;2023-07-31T01:34:49;16.70;99.90
24450;DHT22;13349;50.984;5.822;2023-07-31T01:37:16;16.80;99.90
24450;DHT22;13349;50.984;5.822;2023-07-31T01:39:43;16.80;99.90
24450;DHT22;13349;50.984;5.822;2023-07-31T01:42:10;16.80;99.90
24450;DHT22;13349;50.984;5.822;2023-07-31T01:44:39;16.90;99.90
24450;DHT22;13349;50.984;5.822;2023-07-31T01:47:05;16.90;99.90
24450;DHT22;13349;50.984;5.822;2023-07-31T01:49:32;16.90;99.90
24450;DHT22;13349;50.984;5.822;2023-07-31T01:51:59;16.90;99.90
24450;DHT22;13349;50.984;5.822;2023-07-31T01:54:26;16.90;99.90
24450;DHT22;13349;50.984;5.822;2023-07-31T01:56:53;16.90;99.90
24450;DHT22;13349;50.984;5.822;2023-07-31T01:59:21;16.90;99.90
24450;DHT22;13349;50.984;5.822;2023-07-31T02:01:49;16.90;99.90
24450;DHT22;13349;50.984;5.822;2023-07-31T02:04:16;16.90;99.90
24450;DHT22;13349;50.984;5.822;2023-07-31T02:06:43;16.90;99.90
24450;DHT22;13349;50.984;5.822;2023-07-31T02:09:10;16.90;99.90
24450;DHT22;13349;50.984;5.822;2023-07-31T02:11:37;16.90;99.90
24450;DHT22;13349;50.984;5.822;2023-07-31T02:14:04;16.90;99.90
24450;DHT22;13349;50.984;5.822;2023-07-31T02:16:31;16.90;99.90
24450;DHT22;13349;50.984;5.822;2023-07-31T02:18:59;16.90;99.90
24450;DHT22;13349;50.984;5.822;2023-07-31T02:21:26;16.90;99.90
24450;DHT22;13349;50.984;5.822;2023-07-31T02:23:53;16.90;99.90
24450;DHT22;13349;50.984;5.822;2023-07-31T02:26:21;16.90;99.90
24450;DHT22;13349;50.984;5.822;2023-07-31T02:28:47;16.90;99.90
24450;DHT22;13349;50.984;5.822;2023-07-31T02:31:14;17.00;99.90
24450;DHT22;13349;50.984;5.822;2023-07-31T02:33:41;17.00;99.90
24450;DHT22;13349;50.984;5.822;2023-07-31T02:36:10;17.00;99.90
24450;DHT22;13349;50.984;5.822;2023-07-31T02:38:37;17.00;99.90
24450;DHT22;13349;50.984;5.822;2023-07-31T02:41:04;17.00;99.90
24450;DHT22;13349;50.984;5.822;2023-07-31T02:43:31;17.00;99.90
24450;DHT22;13349;50.984;5.822;2023-07-31T02:45:59;17.00;99.90
24450;DHT22;13349;50.984;5.822;2023-07-31T02:48:26;16.90;99.90
24450;DHT22;13349;50.984;5.822;2023-07-31T02:50:53;16.80;99.90
24450;DHT22;13349;50.984;5.822;2023-07-31T02:53:21;16.90;99.90
24450;DHT22;13349;50.984;5.822;2023-07-31T02:55:48;16.90;99.90
24450;DHT22;13349;50.984;5.822;2023-07-31T02:58:15;16.90;99.90
24450;DHT22;13349;50.984;5.822;2023-07-31T03:00:42;16.90;99.90
24450;DHT22;13349;50.984;5.822;2023-07-31T03:03:09;16.90;99.90
24450;DHT22;13349;50.984;5.822;2023-07-31T03:05:36;16.90;99.90
24450;DHT22;13349;50.984;5.822;2023-07-31T03:08:04;17.00;99.90
24450;DHT22;13349;50.984;5.822;2023-07-31T03:10:32;17.00;99.90
24450;DHT22;13349;50.984;5.822;2023-07-31T03:12:59;17.00;99.90
24450;DHT22;13349;50.984;5.822;2023-07-31T03:15:26;16.90;99.90
24450;DHT22;13349;50.984;5.822;2023-07-31T03:17:53;17.00;99.90
24450;DHT22;13349;50.984;5.822;2023-07-31T03:20:20;16.90;99.90
24450;DHT22;13349;50.984;5.822;2023-07-31T03:22:47;17.00;99.90
24450;DHT22;13349;50.984;5.822;2023-07-31T03:25:14;17.00;99.90
24450;DHT22;13349;50.984;5.822;2023-07-31T03:27:43;17.00;99.90
24450;DHT22;13349;50.984;5.822;2023-07-31T03:30:10;17.00;99.90
24450;DHT22;13349;50.984;5.822;2023-07-31T03:32:37;17.10;99.90
24450;DHT22;13349;50.984;5.822;2023-07-31T03:35:05;17.10;99.90
24450;DHT22;13349;50.984;5.822;2023-07-31T03:37:32;17.00;99.90
24450;DHT22;13349;50.984;5.822;2023-07-31T03:39:59;17.10;99.90
24450;DHT22;13349;50.984;5.822;2023-07-31T03:42:26;17.10;99.90
24450;DHT22;13349;50.984;5.822;2023-07-31T03:44:54;17.20;99.90
24450;DHT22;13349;50.984;5.822;2023-07-31T03:47:21;17.20;99.90
24450;DHT22;13349;50.984;5.822;2023-07-31T03:49:48;17.10;99.90
24450;DHT22;13349;50.984;5.822;2023-07-31T03:52:15;17.10;99.90
24450;DHT22;13349;50.984;5.822;2023-07-31T03:54:42;17.20;99.90
24450;DHT22;13349;50.984;5.822;2023-07-31T03:57:10;17.10;99.90
24450;DHT22;13349;50.984;5.822;2023-07-31T03:59:37;17.20;99.90
24450;DHT22;13349;50.984;5.822;2023-07-31T04:02:06;17.20;99.90
24450;DHT22;13349;50.984;5.822;2023-07-31T04:04:33;17.20;99.90
24450;DHT22;13349;50.984;5.822;2023-07-31T04:07:00;17.20;99.90
24450;DHT22;13349;50.984;5.822;2023-07-31T04:09:27;17.30;99.90
24450;DHT22;13349;50.984;5.822;2023-07-31T04:11:54;17.30;99.90
24450;DHT22;13349;50.984;5.822;2023-07-31T04:14:21;17.30;99.90
24450;DHT22;13349;50.984;5.822;2023-07-31T04:16:48;17.30;99.90
24450;DHT22;13349;50.984;5.822;2023-07-31T04:19:16;17.30;99.90
24450;DHT22;13349;50.984;5.822;2023-07-31T04:21:43;17.30;99.90
24450;DHT22;13349;50.984;5.822;2023-07-31T04:24:10;17.30;99.90
24450;DHT22;13349;50.984;5.822;2023-07-31T04:26:37;17.30;99.90
24450;DHT22;13349;50.984;5.822;2023-07-31T04:29:04;17.30;99.90
24450;DHT22;13349;50.984;5.822;2023-07-31T04:31:31;17.30;99.90
24450;DHT22;13349;50.984;5.822;2023-07-31T04:33:58;17.30;99.90
24450;DHT22;13349;50.984;5.822;2023-07-31T04:36:26;17.30;99.90
24450;DHT22;13349;50.984;5.822;2023-07-31T04:38:53;17.30;99.90
24450;DHT22;13349;50.984;5.822;2023-07-31T04:41:21;17.30;99.90
24450;DHT22;13349;50.984;5.822;2023-07-31T04:43:48;17.40;99.90
24450;DHT22;13349;50.984;5.822;2023-07-31T04:46:15;17.40;99.90
24450;DHT22;13349;50.984;5.822;2023-07-31T04:48:42;17.40;99.90
24450;DHT22;13349;50.984;5.822;2023-07-31T04:51:09;17.40;99.90
24450;DHT22;13349;50.984;5.822;2023-07-31T04:53:37;17.40;99.90
24450;DHT22;13349;50.984;5.822;2023-07-31T04:56:04;17.40;99.90
24450;DHT22;13349;50.984;5.822;2023-07-31T04:58:31;17.40;99.90
24450;DHT22;13349;50.984;5.822;2023-07-31T05:01:00;17.40;99.90
24450;DHT22;13349;50.984;5.822;2023-07-31T05:03:27;17.40;99.90
24450;DHT22;13349;50.984;5.822;2023-07-31T05:05:54;17.40;99.90
24450;DHT22;13349;50.984;5.822;2023-07-31T05:08:21;17.30;99.90
24450;DHT22;13349;50.984;5.822;2023-07-31T05:10:50;17.30;99.90
24450;DHT22;13349;50.984;5.822;2023-07-31T05:13:16;17.40;99.90
24450;DHT22;13349;50.984;5.822;2023-07-31T05:15:43;17.30;99.90
24450;DHT22;13349;50.984;5.822;2023-07-31T05:18:10;17.20;99.90
24450;DHT22;13349;50.984;5.822;2023-07-31T05:20:37;17.10;99.90
24450;DHT22;13349;50.984;5.822;2023-07-31T05:23:05;17.10;99.90
24450;DHT22;13349;50.984;5.822;2023-07-31T05:25:32;17.10;99.90
24450;DHT22;13349;50.984;5.822;2023-07-31T05:28:00;17.10;99.90
24450;DHT22;13349;50.984;5.822;2023-07-31T05:30:29;17.00;99.90
24450;DHT22;13349;50.984;5.822;2023-07-31T05:32:56;17.00;99.90
24450;DHT22;13349;50.984;5.822;2023-07-31T05:35:23;16.90;99.90
24450;DHT22;13349;50.984;5.822;2023-07-31T05:37:50;16.80;99.90
24450;DHT22;13349;50.984;5.822;2023-07-31T05:40:17;16.70;99.90
24450;DHT22;13349;50.984;5.822;2023-07-31T05:42:44;16.70;99.90
24450;DHT22;13349;50.984;5.822;2023-07-31T05:45:13;16.80;99.90
24450;DHT22;13349;50.984;5.822;2023-07-31T05:47:40;16.80;99.90
24450;DHT22;13349;50.984;5.822;2023-07-31T05:50:07;16.80;99.90
24450;DHT22;13349;50.984;5.822;2023-07-31T05:52:34;16.90;99.90
24450;DHT22;13349;50.984;5.822;2023-07-31T05:55:01;16.90;99.90
24450;DHT22;13349;50.984;5.822;2023-07-31T05:57:29;16.90;99.90
24450;DHT22;13349;50.984;5.822;2023-07-31T05:59:55;16.90;99.90
24450;DHT22;13349;50.984;5.822;2023-07-31T06:02:24;16.90;99.90
24450;DHT22;13349;50.984;5.822;2023-07-31T06:04:51;17.00;99.90
24450;DHT22;13349;50.984;5.822;2023-07-31T06:07:18;17.00;99.90
24450;DHT22;13349;50.984;5.822;2023-07-31T06:09:45;17.10;99.90
24450;DHT22;13349;50.984;5.822;2023-07-31T06:12:12;17.10;99.90
24450;DHT22;13349;50.984;5.822;2023-07-31T06:14:39;17.20;99.90
24450;DHT22;13349;50.984;5.822;2023-07-31T06:17:06;17.20;99.90
24450;DHT22;13349;50.984;5.822;2023-07-31T06:19:35;17.20;99.90
24450;DHT22;13349;50.984;5.822;2023-07-31T06:22:02;17.20;99.90
24450;DHT22;13349;50.984;5.822;2023-07-31T06:24:29;17.30;99.90
24450;DHT22;13349;50.984;5.822;2023-07-31T06:26:56;17.30;99.90
24450;DHT22;13349;50.984;5.822;2023-07-31T06:29:23;17.30;99.90
24450;DHT22;13349;50.984;5.822;2023-07-31T06:31:50;17.20;99.90
24450;DHT22;13349;50.984;5.822;2023-07-31T06:34:17;17.10;99.90
24450;DHT22;13349;50.984;5.822;2023-07-31T06:36:45;17.20;99.90
24450;DHT22;13349;50.984;5.822;2023-07-31T06:39:12;17.20;99.90
24450;DHT22;13349;50.984;5.822;2023-07-31T06:41:39;17.00;99.90
24450;DHT22;13349;50.984;5.822;2023-07-31T06:44:06;16.90;99.90
24450;DHT22;13349;50.984;5.822;2023-07-31T06:46:33;16.80;99.90
24450;DHT22;13349;50.984;5.822;2023-07-31T06:49:00;16.60;99.90
24450;DHT22;13349;50.984;5.822;2023-07-31T06:51:27;16.60;99.90
24450;DHT22;13349;50.984;5.822;2023-07-31T06:53:58;16.50;99.90
24450;DHT22;13349;50.984;5.822;2023-07-31T06:56:25;16.40;99.90
24450;DHT22;13349;50.984;5.822;2023-07-31T06:58:53;16.40;99.90
24450;DHT22;13349;50.984;5.822;2023-07-31T07:01:20;16.40;99.90
24450;DHT22;13349;50.984;5.822;2023-07-31T07:03:47;16.50;99.90
24450;DHT22;13349;50.984;5.822;2023-07-31T07:06:16;16.50;99.90
24450;DHT22;13349;50.984;5.822;2023-07-31T07:08:43;16.60;99.90
24450;DHT22;13349;50.984;5.822;2023-07-31T07:11:11;16.50;99.90
24450;DHT22;13349;50.984;5.822;2023-07-31T07:13:38;16.50;99.90
24450;DHT22;13349;50.984;5.822;2023-07-31T07:16:05;16.50;99.90
24450;DHT22;13349;50.984;5.822;2023-07-31T07:18:32;16.50;99.90
24450;DHT22;13349;50.984;5.822;2023-07-31T07:20:59;16.50;99.90
24450;DHT22;13349;50.984;5.822;2023-07-31T07:23:27;16.50;99.90
24450;DHT22;13349;50.984;5.822;2023-07-31T07:25:54;16.50;99.90
24450;DHT22;13349;50.984;5.822;2023-07-31T07:28:23;16.50;99.90
24450;DHT22;13349;50.984;5.822;2023-07-31T07:30:51;16.40;99.90
24450;DHT22;13349;50.984;5.822;2023-07-31T07:33:18;16.50;99.90
24450;DHT22;13349;50.984;5.822;2023-07-31T07:35:45;16.50;99.90
24450;DHT22;13349;50.984;5.822;2023-07-31T07:38:13;16.60;99.90
24450;DHT22;13349;50.984;5.822;2023-07-31T07:40:40;16.80;99.90
24450;DHT22;13349;50.984;5.822;2023-07-31T07:43:07;17.00;99.90
24450;DHT22;13349;50.984;5.822;2023-07-31T07:45:35;17.00;99.90
24450;DHT22;13349;50.984;5.822;2023-07-31T07:48:03;16.90;99.90
24450;DHT22;13349;50.984;5.822;2023-07-31T07:50:30;17.00;99.90
24450;DHT22;13349;50.984;5.822;2023-07-31T07:52:57;17.30;99.90
24450;DHT22;13349;50.984;5.822;2023-07-31T07:55:24;17.40;99.90
24450;DHT22;13349;50.984;5.822;2023-07-31T07:57:51;17.40;99.90
24450;DHT22;13349;50.984;5.822;2023-07-31T08:00:18;17.40;99.90
24450;DHT22;13349;50.984;5.822;2023-07-31T08:02:47;17.40;99.90
24450;DHT22;13349;50.984;5.822;2023-07-31T08:05:14;17.30;99.90
24450;DHT22;13349;50.984;5.822;2023-07-31T08:07:42;17.30;99.90
24450;DHT22;13349;50.984;5.822;2023-07-31T08:10:09;17.10;99.90
24450;DHT22;13349;50.984;5.822;2023-07-31T08:12:36;17.00;99.90
24450;DHT22;13349;50.984;5.822;2023-07-31T08:15:04;17.00;99.90
24450;DHT22;13349;50.984;5.822;2023-07-31T08:17:31;17.10;99.90
24450;DHT22;13349;50.984;5.822;2023-07-31T08:19:59;17.10;99.90
24450;DHT22;13349;50.984;5.822;2023-07-31T08:22:26;17.20;99.90
24450;DHT22;13349;50.984;5.822;2023-07-31T08:24:53;17.30;99.90
24450;DHT22;13349;50.984;5.822;2023-07-31T08:27:20;17.40;99.90
24450;DHT22;13349;50.984;5.822;2023-07-31T08:29:47;17.50;99.90
24450;DHT22;13349;50.984;5.822;2023-07-31T08:32:14;17.40;99.90
24450;DHT22;13349;50.984;5.822;2023-07-31T08:34:41;17.40;99.90
24450;DHT22;13349;50.984;5.822;2023-07-31T08:37:09;17.40;99.90
24450;DHT22;13349;50.984;5.822;2023-07-31T08:39:37;17.20;99.90
24450;DHT22;13349;50.984;5.822;2023-07-31T08:42:07;17.30;99.90
24450;DHT22;13349;50.984;5.822;2023-07-31T08:44:34;17.50;99.90
24450;DHT22;13349;50.984;5.822;2023-07-31T08:47:01;17.50;99.90
24450;DHT22;13349;50.984;5.822;2023-07-31T08:49:28;17.40;99.90
24450;DHT22;13349;50.984;5.822;2023-07-31T08:51:55;17.40;99.90
24450;DHT22;13349;50.984;5.822;2023-07-31T08:54:25;17.40;99.90
24450;DHT22;13349;50.984;5.822;2023-07-31T08:56:54;17.20;99.90
24450;DHT22;13349;50.984;5.822;2023-07-31T08:59:21;17.30;99.90
24450;DHT22;13349;50.984;5.822;2023-07-31T09:01:49;17.30;99.90
24450;DHT22;13349;50.984;5.822;2023-07-31T09:04:16;17.30;99.90
24450;DHT22;13349;50.984;5.822;2023-07-31T09:06:46;17.30;99.90
24450;DHT22;13349;50.984;5.822;2023-07-31T09:09:14;17.20;99.90
24450;DHT22;13349;50.984;5.822;2023-07-31T09:11:43;17.40;99.90
24450;DHT22;13349;50.984;5.822;2023-07-31T09:14:10;17.20;99.90
24450;DHT22;13349;50.984;5.822;2023-07-31T09:16:50;17.20;99.90
24450;DHT22;13349;50.984;5.822;2023-07-31T09:19:22;17.30;99.90
24450;DHT22;13349;50.984;5.822;2023-07-31T09:21:51;17.40;99.90
24450;DHT22;13349;50.984;5.822;2023-07-31T09:24:24;17.40;99.90
24450;DHT22;13349;50.984;5.822;2023-07-31T09:26:53;17.30;99.90
24450;DHT22;13349;50.984;5.822;2023-07-31T09:29:20;17.10;99.90
24450;DHT22;13349;50.984;5.822;2023-07-31T09:31:50;17.00;99.90
24450;DHT22;13349;50.984;5.822;2023-07-31T09:34:17;17.10;99.90
24450;DHT22;13349;50.984;5.822;2023-07-31T09:36:45;17.30;99.90
24450;DHT22;13349;50.984;5.822;2023-07-31T09:39:12;17.40;99.90
24450;DHT22;13349;50.984;5.822;2023-07-31T09:41:41;17.60;99.90
24450;DHT22;13349;50.984;5.822;2023-07-31T09:44:09;17.50;99.90
24450;DHT22;13349;50.984;5.822;2023-07-31T09:46:37;17.60;99.90
24450;DHT22;13349;50.984;5.822;2023-07-31T09:49:07;17.70;99.90
24450;DHT22;13349;50.984;5.822;2023-07-31T09:51:35;17.80;99.90
24450;DHT22;13349;50.984;5.822;2023-07-31T09:54:08;17.80;99.90
24450;DHT22;13349;50.984;5.822;2023-07-31T09:56:35;17.90;99.90
24450;DHT22;13349;50.984;5.822;2023-07-31T09:59:02;17.80;99.90
24450;DHT22;13349;50.984;5.822;2023-07-31T10:01:32;17.70;99.90
24450;DHT22;13349;50.984;5.822;2023-07-31T10:03:59;17.80;99.90
24450;DHT22;13349;50.984;5.822;2023-07-31T10:06:27;17.90;99.90
24450;DHT22;13349;50.984;5.822;2023-07-31T10:08:55;18.00;99.90
24450;DHT22;13349;50.984;5.822;2023-07-31T10:11:22;18.00;99.90
24450;DHT22;13349;50.984;5.822;2023-07-31T10:13:51;18.00;99.90
24450;DHT22;13349;50.984;5.822;2023-07-31T10:16:18;18.20;99.90
24450;DHT22;13349;50.984;5.822;2023-07-31T10:18:47;18.10;99.90
24450;DHT22;13349;50.984;5.822;2023-07-31T10:21:14;18.20;99.90
24450;DHT22;13349;50.984;5.822;2023-07-31T10:23:42;18.30;99.90
24450;DHT22;13349;50.984;5.822;2023-07-31T10:26:09;18.30;99.90
24450;DHT22;13349;50.984;5.822;2023-07-31T10:28:37;18.50;99.90
24450;DHT22;13349;50.984;5.822;2023-07-31T10:31:05;19.00;99.90
24450;DHT22;13349;50.984;5.822;2023-07-31T10:33:33;19.10;99.90
24450;DHT22;13349;50.984;5.822;2023-07-31T10:36:14;18.90;99.90
24450;DHT22;13349;50.984;5.822;2023-07-31T10:38:42;18.70;99.90
24450;DHT22;13349;50.984;5.822;2023-07-31T10:41:09;18.60;99.90
24450;DHT22;13349;50.984;5.822;2023-07-31T10:43:36;18.80;99.90
24450;DHT22;13349;50.984;5.822;2023-07-31T10:46:06;19.00;99.90
24450;DHT22;13349;50.984;5.822;2023-07-31T10:48:34;18.90;99.90
24450;DHT22;13349;50.984;5.822;2023-07-31T10:51:06;19.00;99.90
24450;DHT22;13349;50.984;5.822;2023-07-31T10:53:35;19.30;99.90
24450;DHT22;13349;50.984;5.822;2023-07-31T10:56:02;19.20;99.90
24450;DHT22;13349;50.984;5.822;2023-07-31T10:58:29;19.20;99.90
24450;DHT22;13349;50.984;5.822;2023-07-31T11:00:58;19.20;99.90
24450;DHT22;13349;50.984;5.822;2023-07-31T11:03:25;19.10;99.90
24450;DHT22;13349;50.984;5.822;2023-07-31T11:05:53;19.40;99.90
24450;DHT22;13349;50.984;5.822;2023-07-31T11:08:21;19.10;99.90
24450;DHT22;13349;50.984;5.822;2023-07-31T11:10:51;19.00;99.90
24450;DHT22;13349;50.984;5.822;2023-07-31T11:13:31;18.80;99.90
24450;DHT22;13349;50.984;5.822;2023-07-31T11:15:58;18.90;99.90
24450;DHT22;13349;50.984;5.822;2023-07-31T11:18:25;18.90;99.90
24450;DHT22;13349;50.984;5.822;2023-07-31T11:20:53;18.60;99.90
24450;DHT22;13349;50.984;5.822;2023-07-31T11:23:20;18.20;99.90
24450;DHT22;13349;50.984;5.822;2023-07-31T11:25:47;18.00;99.90
24450;DHT22;13349;50.984;5.822;2023-07-31T11:28:16;17.90;99.90
24450;DHT22;13349;50.984;5.822;2023-07-31T11:30:44;17.90;99.90
24450;DHT22;13349;50.984;5.822;2023-07-31T11:33:12;18.10;99.90
24450;DHT22;13349;50.984;5.822;2023-07-31T11:35:43;18.10;99.90
24450;DHT22;13349;50.984;5.822;2023-07-31T11:38:10;18.00;99.90
24450;DHT22;13349;50.984;5.822;2023-07-31T11:40:40;18.00;99.90
24450;DHT22;13349;50.984;5.822;2023-07-31T11:43:08;18.10;99.90
24450;DHT22;13349;50.984;5.822;2023-07-31T11:45:38;18.10;99.90
24450;DHT22;13349;50.984;5.822;2023-07-31T11:48:06;18.10;99.90
24450;DHT22;13349;50.984;5.822;2023-07-31T11:50:33;17.90;99.90
24450;DHT22;13349;50.984;5.822;2023-07-31T11:53:02;18.00;99.90
24450;DHT22;13349;50.984;5.822;2023-07-31T11:55:30;18.40;99.90
24450;DHT22;13349;50.984;5.822;2023-07-31T11:57:57;18.80;99.90
24450;DHT22;13349;50.984;5.822;2023-07-31T12:00:25;19.20;99.90
24450;DHT22;13349;50.984;5.822;2023-07-31T12:02:53;19.30;99.90
24450;DHT22;13349;50.984;5.822;2023-07-31T12:05:21;19.40;99.90
24450;DHT22;13349;50.984;5.822;2023-07-31T12:07:49;19.50;99.90
24450;DHT22;13349;50.984;5.822;2023-07-31T12:10:23;19.40;99.90
24450;DHT22;13349;50.984;5.822;2023-07-31T12:12:55;19.00;99.90
24450;DHT22;13349;50.984;5.822;2023-07-31T12:15:22;18.90;99.90
24450;DHT22;13349;50.984;5.822;2023-07-31T12:17:56;18.90;99.90
24450;DHT22;13349;50.984;5.822;2023-07-31T12:20:23;18.80;99.90
24450;DHT22;13349;50.984;5.822;2023-07-31T12:22:51;18.90;99.90
24450;DHT22;13349;50.984;5.822;2023-07-31T12:25:18;19.00;99.90
24450;DHT22;13349;50.984;5.822;2023-07-31T12:27:45;19.10;99.90
24450;DHT22;13349;50.984;5.822;2023-07-31T12:30:26;19.20;99.90
24450;DHT22;13349;50.984;5.822;2023-07-31T12:32:53;19.40;99.90
24450;DHT22;13349;50.984;5.822;2023-07-31T12:35:22;19.60;99.90
24450;DHT22;13349;50.984;5.822;2023-07-31T12:37:49;19.70;99.90
24450;DHT22;13349;50.984;5.822;2023-07-31T12:40:16;19.70;99.90
24450;DHT22;13349;50.984;5.822;2023-07-31T12:42:43;19.80;99.90
24450;DHT22;13349;50.984;5.822;2023-07-31T12:45:10;19.80;99.90
24450;DHT22;13349;50.984;5.822;2023-07-31T12:47:37;20.00;99.90
24450;DHT22;13349;50.984;5.822;2023-07-31T12:50:05;20.10;99.90
24450;DHT22;13349;50.984;5.822;2023-07-31T12:52:33;20.00;99.90
24450;DHT22;13349;50.984;5.822;2023-07-31T12:55:00;20.20;99.90
24450;DHT22;13349;50.984;5.822;2023-07-31T12:57:27;20.40;99.90
24450;DHT22;13349;50.984;5.822;2023-07-31T12:59:54;20.80;99.90
24450;DHT22;13349;50.984;5.822;2023-07-31T13:02:21;21.00;99.90
24450;DHT22;13349;50.984;5.822;2023-07-31T13:04:49;21.20;1.00
24450;DHT22;13349;50.984;5.822;2023-07-31T13:07:17;21.30;1.00
24450;DHT22;13349;50.984;5.822;2023-07-31T13:09:45;21.90;1.00
24450;DHT22;13349;50.984;5.822;2023-07-31T13:12:12;22.00;99.90
24450;DHT22;13349;50.984;5.822;2023-07-31T13:14:39;22.00;1.00
24450;DHT22;13349;50.984;5.822;2023-07-31T13:17:06;21.80;99.90
24450;DHT22;13349;50.984;5.822;2023-07-31T13:19:33;21.20;1.00
24450;DHT22;13349;50.984;5.822;2023-07-31T13:22:00;20.80;1.00
24450;DHT22;13349;50.984;5.822;2023-07-31T13:24:27;20.50;1.00
24450;DHT22;13349;50.984;5.822;2023-07-31T13:26:56;20.20;99.90
24450;DHT22;13349;50.984;5.822;2023-07-31T13:29:23;20.10;1.00
24450;DHT22;13349;50.984;5.822;2023-07-31T13:31:51;20.00;1.00
24450;DHT22;13349;50.984;5.822;2023-07-31T13:34:18;20.00;99.90
24450;DHT22;13349;50.984;5.822;2023-07-31T13:36:46;19.90;1.00
24450;DHT22;13349;50.984;5.822;2023-07-31T13:39:13;20.00;1.00
24450;DHT22;13349;50.984;5.822;2023-07-31T13:41:40;20.00;1.00
24450;DHT22;13349;50.984;5.822;2023-07-31T13:44:08;19.90;1.00
24450;DHT22;13349;50.984;5.822;2023-07-31T13:46:35;19.90;99.90
24450;DHT22;13349;50.984;5.822;2023-07-31T13:49:02;19.90;1.00
24450;DHT22;13349;50.984;5.822;2023-07-31T13:51:29;19.90;1.00
24450;DHT22;13349;50.984;5.822;2023-07-31T13:53:56;19.90;1.00
24450;DHT22;13349;50.984;5.822;2023-07-31T13:56:23;19.90;1.00
24450;DHT22;13349;50.984;5.822;2023-07-31T13:58:50;19.90;1.00
24450;DHT22;13349;50.984;5.822;2023-07-31T14:01:19;19.90;1.00
24450;DHT22;13349;50.984;5.822;2023-07-31T14:03:46;20.10;1.00
24450;DHT22;13349;50.984;5.822;2023-07-31T14:06:13;20.30;48.80
24450;DHT22;13349;50.984;5.822;2023-07-31T14:08:40;20.60;1.00
24450;DHT22;13349;50.984;5.822;2023-07-31T14:11:07;20.80;99.90
24450;DHT22;13349;50.984;5.822;2023-07-31T14:13:34;20.80;1.00
24450;DHT22;13349;50.984;5.822;2023-07-31T14:16:01;20.80;1.00
24450;DHT22;13349;50.984;5.822;2023-07-31T14:18:30;20.70;1.00
24450;DHT22;13349;50.984;5.822;2023-07-31T14:20:57;20.60;1.00
24450;DHT22;13349;50.984;5.822;2023-07-31T14:23:24;20.50;1.00
24450;DHT22;13349;50.984;5.822;2023-07-31T14:25:51;20.30;1.00
24450;DHT22;13349;50.984;5.822;2023-07-31T14:28:18;20.20;1.00
24450;DHT22;13349;50.984;5.822;2023-07-31T14:30:45;20.10;1.00
24450;DHT22;13349;50.984;5.822;2023-07-31T14:33:12;20.00;1.00
24450;DHT22;13349;50.984;5.822;2023-07-31T14:35:40;19.90;1.00
24450;DHT22;13349;50.984;5.822;2023-07-31T14:38:07;19.80;1.00
24450;DHT22;13349;50.984;5.822;2023-07-31T14:40:34;19.80;83.70
24450;DHT22;13349;50.984;5.822;2023-07-31T14:43:02;19.80;99.90
24450;DHT22;13349;50.984;5.822;2023-07-31T14:45:29;19.70;1.00
24450;DHT22;13349;50.984;5.822;2023-07-31T14:47:56;19.70;1.00
24450;DHT22;13349;50.984;5.822;2023-07-31T14:50:23;19.70;1.00
24450;DHT22;13349;50.984;5.822;2023-07-31T14:52:53;19.70;99.90
24450;DHT22;13349;50.984;5.822;2023-07-31T14:55:20;19.70;99.90
24450;DHT22;13349;50.984;5.822;2023-07-31T14:57:47;19.70;1.00
24450;DHT22;13349;50.984;5.822;2023-07-31T15:00:14;19.50;1.00
24450;DHT22;13349;50.984;5.822;2023-07-31T15:02:41;19.40;1.00
24450;DHT22;13349;50.984;5.822;2023-07-31T15:05:09;19.20;1.00
24450;DHT22;13349;50.984;5.822;2023-07-31T15:07:36;19.10;99.90
24450;DHT22;13349;50.984;5.822;2023-07-31T15:10:05;18.90;99.90
24450;DHT22;13349;50.984;5.822;2023-07-31T15:12:32;18.80;99.90
24450;DHT22;13349;50.984;5.822;2023-07-31T15:14:59;18.70;99.90
24450;DHT22;13349;50.984;5.822;2023-07-31T15:17:26;18.60;99.90
24450;DHT22;13349;50.984;5.822;2023-07-31T15:19:55;18.70;99.90
24450;DHT22;13349;50.984;5.822;2023-07-31T15:22:22;18.70;99.90
24450;DHT22;13349;50.984;5.822;2023-07-31T15:24:50;18.60;99.90
24450;DHT22;13349;50.984;5.822;2023-07-31T15:27:18;18.60;99.90
24450;DHT22;13349;50.984;5.822;2023-07-31T15:29:45;18.50;99.90
24450;DHT22;13349;50.984;5.822;2023-07-31T15:32:12;18.50;99.90
24450;DHT22;13349;50.984;5.822;2023-07-31T15:34:39;18.40;99.90